createdAt,value
2022-09-07T00:00:11.098Z,21.6
2022-09-07T00:05:46.097Z,21.6
2022-09-07T00:11:20.821Z,21.6
2022-09-07T00:16:55.653Z,21.6
2022-09-07T00:22:31.455Z,21.6
2022-09-07T00:28:07.699Z,21.6
2022-09-07T00:33:42.668Z,21.6
2022-09-07T00:39:17.552Z,21.6
2022-09-07T00:44:52.356Z,21.6
2022-09-07T00:50:27.137Z,21.5
2022-09-07T00:56:01.974Z,21.5
2022-09-07T01:01:36.875Z,21.5
2022-09-07T01:07:14.243Z,21.4
2022-09-07T01:12:48.954Z,21.3
2022-09-07T01:18:23.829Z,21.2
2022-09-07T01:23:59.230Z,21.2
2022-09-07T01:29:34.551Z,21.1
2022-09-07T01:35:10.502Z,21.1
2022-09-07T01:41:06.972Z,21
2022-09-07T01:46:39.892Z,21
2022-09-07T01:52:16.462Z,20.9
2022-09-07T01:57:51.371Z,20.9
2022-09-07T02:03:26.172Z,20.8
2022-09-07T02:09:00.980Z,20.8
2022-09-07T02:14:35.929Z,20.7
2022-09-07T02:20:10.743Z,20.6
2022-09-07T02:25:45.464Z,20.6
2022-09-07T02:31:20.227Z,20.6
2022-09-07T02:36:55.985Z,20.6
2022-09-07T02:42:52.562Z,20.6
2022-09-07T02:48:25.082Z,20.5
2022-09-07T02:54:00.742Z,20.5
2022-09-07T02:59:35.405Z,20.5
2022-09-07T03:05:10.088Z,20.4
2022-09-07T03:10:44.922Z,20.4
2022-09-07T03:16:19.737Z,20.3
2022-09-07T03:21:55.462Z,20.3
2022-09-07T03:27:31.388Z,20.2
2022-09-07T03:33:06.410Z,20.2
2022-09-07T03:38:41.398Z,20.1
2022-09-07T03:44:16.409Z,20.1
2022-09-07T03:49:52.992Z,20
2022-09-07T03:55:27.864Z,20
2022-09-07T04:01:03.837Z,19.9
2022-09-07T04:06:39.903Z,19.8
2022-09-07T04:12:14.732Z,19.8
2022-09-07T04:17:49.676Z,19.8
2022-09-07T04:23:24.566Z,19.7
2022-09-07T04:28:59.421Z,19.7
2022-09-07T04:34:34.333Z,19.7
2022-09-07T04:40:10.301Z,19.6
2022-09-07T04:45:46.587Z,19.6
2022-09-07T04:51:22.142Z,19.6
2022-09-07T04:56:56.811Z,19.5
2022-09-07T05:02:32.757Z,19.5
2022-09-07T05:08:09.004Z,19.5
2022-09-07T05:13:43.839Z,19.4
2022-09-07T05:19:18.707Z,19.4
2022-09-07T05:24:53.584Z,19.4
2022-09-07T05:37:03.786Z,19.3
2022-09-07T05:42:38.644Z,19.3
2022-09-07T05:48:13.521Z,19.3
2022-09-07T05:53:48.526Z,19.3
2022-09-07T05:59:23.409Z,19.3
2022-09-07T06:04:58.219Z,19.3
2022-09-07T06:10:48.402Z,19.3
2022-09-07T06:16:23.755Z,19.4
2022-09-07T06:21:59.207Z,19.4
2022-09-07T06:27:34.183Z,19.4
2022-09-07T06:33:09.257Z,19.5
2022-09-07T06:38:44.148Z,19.5
2022-09-07T06:44:19.138Z,19.4
2022-09-07T06:49:53.827Z,19.4
2022-09-07T06:55:28.668Z,19.3
2022-09-07T07:01:04.163Z,19.1
2022-09-07T07:06:39.626Z,18.7
2022-09-07T07:12:14.774Z,18.7
2022-09-07T07:18:09.457Z,19.4
2022-09-07T07:23:56.688Z,20
2022-09-07T07:29:31.528Z,20.7
2022-09-07T07:35:06.213Z,20.5
2022-09-07T07:40:41.476Z,20.7
2022-09-07T07:46:19.642Z,20.6
2022-09-07T07:59:18.303Z,21.8
2022-09-07T08:04:53.453Z,22.3
2022-09-07T08:10:28.534Z,22.3
2022-09-07T08:16:04.716Z,22.6
2022-09-07T08:21:40.774Z,22.8
2022-09-07T08:27:15.903Z,22.9
2022-09-07T08:32:51.097Z,22.8
2022-09-07T08:38:25.918Z,22.8
2022-09-07T08:44:00.838Z,23.2
2022-09-07T08:49:37.461Z,23.6
2022-09-07T08:55:12.432Z,23.8
2022-09-07T09:00:47.497Z,23.5
2022-09-07T09:06:25.051Z,23.4
2022-09-07T09:12:01.508Z,23.9
2022-09-07T09:17:36.428Z,24.4
2022-09-07T09:23:11.323Z,24.6
2022-09-07T09:28:46.399Z,24.4
2022-09-07T09:34:23.944Z,25.2
2022-09-07T09:40:11.004Z,25.7
2022-09-07T10:05:49.280Z,24.3
2022-09-07T10:12:04.904Z,24.7
2022-09-07T10:17:43.811Z,25.2
2022-09-07T10:23:19.057Z,25.2
2022-09-07T10:29:09.997Z,25
2022-09-07T10:34:49.837Z,25.5
2022-09-07T10:40:24.901Z,26.2
2022-09-07T10:46:00.578Z,25.7
2022-09-07T10:51:37.027Z,25.4
2022-09-07T10:57:11.961Z,25.5
2022-09-07T11:09:19.807Z,25.2
2022-09-07T11:14:56.582Z,26.7
2022-09-07T11:20:31.588Z,27
2022-09-07T11:26:06.662Z,26.5
2022-09-07T11:31:41.688Z,26.9
2022-09-07T11:37:16.908Z,27.1
2022-09-07T11:42:52.136Z,27.2
2022-09-07T11:48:31.277Z,27
2022-09-07T11:54:11.096Z,26.1
2022-09-07T11:59:56.999Z,26
2022-09-07T12:05:40.901Z,26.2
2022-09-07T12:11:26.014Z,27.1
2022-09-07T12:17:16.405Z,27.6
2022-09-07T12:22:51.367Z,27.8
2022-09-07T12:28:26.265Z,28.1
2022-09-07T12:34:01.578Z,27.9
2022-09-07T12:39:36.560Z,27.8
2022-09-07T12:45:12.345Z,28.3
2022-09-07T12:50:48.064Z,28.6
2022-09-07T12:56:23.037Z,29.1
2022-09-07T13:01:58.374Z,29.6
2022-09-07T13:07:36.420Z,30.9
2022-09-07T13:13:11.574Z,30
2022-09-07T13:18:47.656Z,28.9
2022-09-07T13:30:27.999Z,28.8
2022-09-07T13:36:04.736Z,28.8
2022-09-07T13:41:39.945Z,28.9
2022-09-07T13:47:14.743Z,28.8
2022-09-07T13:52:49.646Z,28.6
2022-09-07T13:58:24.822Z,29
2022-09-07T14:03:59.892Z,28.8
2022-09-07T14:09:34.802Z,28.8
2022-09-07T14:15:09.589Z,28.8
2022-09-07T14:20:44.450Z,28.7
2022-09-07T14:26:20.055Z,29
2022-09-07T14:31:55.703Z,28.7
2022-09-07T14:37:30.478Z,28.3
2022-09-07T14:43:05.288Z,28.8
2022-09-07T14:48:41.853Z,28.7
2022-09-07T14:54:20.073Z,28.4
2022-09-07T14:59:55.068Z,28.1
2022-09-07T15:05:30.300Z,27.9
2022-09-07T15:23:21.439Z,27.8
2022-09-07T15:29:12.064Z,28
2022-09-07T15:34:47.108Z,27.1
2022-09-07T15:40:23.257Z,26.8
2022-09-07T15:45:59.711Z,26.8
2022-09-07T15:57:54.864Z,26.6
2022-09-07T16:03:48.868Z,25.6
2022-09-07T16:09:25.718Z,25.4
2022-09-07T16:15:02.034Z,25
2022-09-07T16:20:37.259Z,24.7
2022-09-07T16:26:14.244Z,24.5
2022-09-07T16:38:55.097Z,24.2
2022-09-07T16:44:33.436Z,24.5
2022-09-07T16:50:08.402Z,24.2
2022-09-07T16:55:44.124Z,24.3
2022-09-07T17:01:19.130Z,24.3
2022-09-07T17:06:57.268Z,24.4
2022-09-07T17:12:32.173Z,24.3
2022-09-07T17:18:06.977Z,24.6
2022-09-07T17:23:48.006Z,24.7
2022-09-07T17:29:31.268Z,24.3
2022-09-07T17:35:06.194Z,23.6
2022-09-07T17:40:42.961Z,23.1
2022-09-07T17:46:19.098Z,22.7
2022-09-07T17:51:55.182Z,22.4
2022-09-07T17:57:39.551Z,22.1
2022-09-07T18:03:14.662Z,22
2022-09-07T18:08:49.383Z,21.8
2022-09-07T18:14:25.247Z,21.6
2022-09-07T18:20:00.133Z,21.4
2022-09-07T18:25:35.951Z,21.3
2022-09-07T18:31:10.833Z,21.1
2022-09-07T18:36:46.803Z,21
2022-09-07T18:42:22.302Z,20.9
2022-09-07T18:47:57.149Z,20.8
2022-09-07T18:53:32.488Z,20.5
2022-09-07T18:59:08.654Z,20.2
2022-09-07T19:11:27.870Z,19.9
2022-09-07T19:17:02.738Z,20.3
2022-09-07T19:22:38.707Z,20.5
2022-09-07T19:28:14.087Z,20.5
2022-09-07T19:33:49.132Z,20.4
2022-09-07T19:39:24.277Z,20.4
2022-09-07T19:44:59.143Z,20.4
2022-09-07T19:50:34.317Z,20.4
2022-09-07T19:56:09.059Z,20.1
2022-09-07T20:01:44.844Z,20.2
2022-09-07T20:07:19.725Z,20.2
2022-09-07T20:12:54.663Z,20.2
2022-09-07T20:18:30.484Z,20
2022-09-07T20:24:05.579Z,19.9
2022-09-07T20:29:41.921Z,19.9
2022-09-07T20:35:16.855Z,19.7
2022-09-07T20:40:51.645Z,19.6
2022-09-07T20:46:27.319Z,19.6
2022-09-07T20:52:03.573Z,19.6
2022-09-07T20:57:38.398Z,19.5
